createdAt,value
2022-09-20T00:02:15.524Z,52.60
2022-09-20T00:04:46.939Z,52.72
2022-09-20T00:07:18.715Z,52.46
2022-09-20T00:09:48.467Z,52.73
2022-09-20T00:12:19.991Z,53.14
2022-09-20T00:14:51.440Z,53.28
2022-09-20T00:17:22.851Z,53.42
2022-09-20T00:19:54.269Z,53.76
2022-09-20T00:22:25.663Z,54.09
2022-09-20T00:24:57.170Z,54.17
2022-09-20T00:27:28.525Z,54.18
2022-09-20T00:30:00.199Z,53.84
2022-09-20T00:32:32.083Z,53.79
2022-09-20T00:35:11.052Z,53.86
2022-09-20T00:37:43.548Z,54.43
2022-09-20T00:40:16.958Z,54.64
2022-09-20T00:42:48.349Z,54.72
2022-09-20T00:45:23.018Z,55.42
2022-09-20T00:47:56.229Z,56.36
2022-09-20T00:50:34.894Z,56.45
2022-09-20T00:53:09.174Z,56.02
2022-09-20T00:55:42.647Z,55.74
2022-09-20T00:58:14.035Z,55.80
2022-09-20T01:00:45.476Z,55.80
2022-09-20T01:03:17.740Z,55.74
2022-09-20T01:05:49.121Z,55.62
2022-09-20T01:08:20.609Z,55.44
2022-09-20T01:10:51.911Z,55.45
2022-09-20T01:13:23.631Z,55.42
2022-09-20T01:15:53.307Z,55.21
2022-09-20T01:18:24.714Z,55.39
2022-09-20T01:20:56.173Z,55.43
2022-09-20T01:23:43.921Z,55.16
2022-09-20T01:26:33.976Z,54.69
2022-09-20T01:29:09.574Z,55.11
2022-09-20T01:31:45.260Z,54.16
2022-09-20T01:34:19.188Z,52.79
2022-09-20T01:36:53.622Z,52.23
2022-09-20T01:39:30.832Z,51.94
2022-09-20T01:42:03.772Z,51.78
2022-09-20T01:44:38.877Z,51.77
2022-09-20T01:47:16.216Z,51.53
2022-09-20T01:49:51.149Z,51.47
2022-09-20T01:52:42.736Z,51.63
2022-09-20T01:55:39.983Z,51.80
2022-09-20T01:58:31.238Z,51.86
2022-09-20T02:01:20.594Z,52.05
2022-09-20T02:04:07.764Z,52.19
2022-09-20T02:06:46.655Z,52.52
2022-09-20T02:09:42.624Z,52.45
2022-09-20T02:12:30.388Z,52.39
2022-09-20T02:15:08.534Z,52.67
2022-09-20T02:17:45.352Z,53.10
2022-09-20T02:20:22.528Z,53.28
2022-09-20T02:23:07.310Z,53.53
2022-09-20T02:25:54.793Z,53.96
2022-09-20T02:28:32.527Z,55.02
2022-09-20T02:31:11.852Z,55.24
2022-09-20T02:33:57.572Z,55.49
2022-09-20T02:36:36.075Z,55.99
2022-09-20T02:39:12.084Z,57.43
2022-09-20T02:42:12.544Z,59.06
2022-09-20T02:44:49.785Z,60.59
2022-09-20T02:47:24.610Z,63.31
2022-09-20T02:50:09.997Z,64.46
2022-09-20T02:52:43.861Z,65.91
2022-09-20T02:55:18.658Z,66.77
2022-09-20T02:57:52.214Z,68.18
2022-09-20T03:00:25.639Z,72.89
2022-09-20T03:03:07.770Z,74.55
2022-09-20T03:05:44.232Z,79.89
2022-09-20T03:08:21.909Z,79.65
2022-09-20T03:10:55.928Z,80.84
2022-09-20T03:13:31.575Z,86.12
2022-09-20T03:16:06.776Z,86.70
2022-09-20T03:18:44.850Z,85.58
2022-09-20T03:21:26.978Z,86.60
2022-09-20T03:24:04.059Z,88.73
2022-09-20T03:26:41.239Z,89.87
2022-09-20T03:29:20.491Z,89.82
2022-09-20T03:32:01.276Z,89.87
2022-09-20T03:34:44.325Z,90.64
2022-09-20T03:37:38.689Z,90.36
2022-09-20T03:40:30.441Z,91.10
2022-09-20T03:43:05.073Z,93.74
2022-09-20T03:45:58.822Z,95.78
2022-09-20T03:48:49.250Z,96.07
2022-09-20T03:51:25.130Z,96.66
2022-09-20T03:54:28.872Z,96.95
2022-09-20T03:57:14.104Z,97.02
2022-09-20T04:00:03.549Z,96.88
2022-09-20T04:02:57.024Z,96.87
2022-09-20T04:05:31.689Z,97.07
2022-09-20T04:08:07.949Z,96.91
2022-09-20T04:10:44.775Z,96.10
2022-09-20T04:13:30.769Z,95.44
2022-09-20T04:16:09.665Z,95.19
2022-09-20T04:18:45.032Z,94.86
2022-09-20T04:21:24.060Z,93.94
2022-09-20T04:24:00.852Z,93.61
2022-09-20T04:26:34.291Z,93.16
2022-09-20T04:29:21.298Z,92.91
2022-09-20T04:31:54.557Z,93.26
2022-09-20T04:34:49.771Z,93.71
2022-09-20T04:37:26.485Z,93.88
2022-09-20T04:40:04.219Z,93.65
2022-09-20T04:43:09.098Z,94.12
2022-09-20T04:46:22.451Z,96.27
2022-09-20T04:49:11.117Z,97.31
2022-09-20T04:52:30.385Z,97.94
2022-09-20T04:55:23.712Z,99.48
2022-09-20T04:58:22.472Z,99.13
2022-09-20T05:01:04.983Z,99.43
2022-09-20T05:03:58.992Z,100.00
2022-09-20T05:06:52.734Z,100.00
2022-09-20T05:09:35.112Z,100.00
2022-09-20T05:12:24.251Z,100.00
2022-09-20T05:15:16.536Z,100.00
2022-09-20T05:17:56.045Z,100.00
2022-09-20T05:20:50.706Z,100.00
2022-09-20T05:23:38.318Z,100.00
2022-09-20T05:26:22.987Z,100.00
2022-09-20T05:28:58.561Z,100.00
2022-09-20T05:31:38.100Z,100.00
2022-09-20T05:34:13.360Z,100.00
2022-09-20T05:36:50.339Z,100.00
2022-09-20T05:39:33.859Z,100.00
2022-09-20T05:42:10.638Z,100.00
2022-09-20T05:44:57.503Z,99.97
2022-09-20T05:47:36.485Z,100.00
2022-09-20T05:50:20.753Z,99.54
2022-09-20T05:52:55.410Z,99.92
2022-09-20T05:55:53.985Z,100.00
2022-09-20T05:58:54.746Z,99.53
2022-09-20T06:01:31.169Z,99.60
2022-09-20T06:04:08.497Z,99.31
2022-09-20T06:06:45.815Z,99.43
2022-09-20T06:09:31.617Z,98.74
2022-09-20T06:12:09.556Z,98.76
2022-09-20T06:14:47.764Z,98.70
2022-09-20T06:17:26.406Z,99.61
2022-09-20T06:20:06.070Z,99.45
2022-09-20T06:22:40.310Z,98.66
2022-09-20T06:25:19.966Z,98.33
2022-09-20T06:27:54.187Z,98.73
2022-09-20T06:30:26.918Z,98.82
2022-09-20T06:33:02.986Z,98.33
2022-09-20T06:35:38.339Z,98.28
2022-09-20T06:38:41.750Z,98.35
2022-09-20T06:41:28.931Z,98.63
2022-09-20T06:44:01.819Z,98.54
2022-09-20T06:46:34.475Z,98.27
2022-09-20T06:49:08.515Z,97.95
2022-09-20T06:51:40.332Z,97.65
2022-09-20T06:54:11.710Z,97.09
2022-09-20T06:56:43.185Z,96.87
2022-09-20T06:59:15.628Z,96.67
2022-09-20T07:01:47.606Z,96.50
2022-09-20T07:04:19.142Z,96.24
2022-09-20T07:06:51.325Z,95.68
2022-09-20T07:09:23.266Z,95.53
2022-09-20T07:11:53.254Z,95.38
2022-09-20T07:14:25.601Z,95.39
2022-09-20T07:16:56.980Z,95.40
2022-09-20T07:19:28.936Z,95.33
2022-09-20T07:22:00.394Z,95.30
2022-09-20T07:24:32.561Z,94.98
2022-09-20T07:27:05.468Z,94.60
2022-09-20T07:29:37.351Z,94.13
2022-09-20T07:32:09.163Z,93.89
2022-09-20T07:34:41.688Z,93.68
2022-09-20T07:37:14.733Z,93.51
2022-09-20T07:39:46.625Z,92.86
2022-09-20T07:42:18.353Z,92.19
2022-09-20T07:44:51.747Z,91.76
2022-09-20T07:47:25.552Z,91.30
2022-09-20T07:49:57.362Z,89.90
2022-09-20T07:52:29.083Z,88.90
2022-09-20T07:55:00.834Z,88.22
2022-09-20T07:57:32.413Z,88.16
2022-09-20T08:00:05.199Z,88.27
2022-09-20T08:02:45.348Z,88.15
2022-09-20T08:05:18.183Z,87.95
2022-09-20T08:07:49.637Z,88.14
2022-09-20T08:10:21.199Z,88.43
2022-09-20T08:15:45.270Z,87.33
2022-09-20T08:18:17.903Z,86.64
2022-09-20T08:20:49.384Z,86.73
2022-09-20T08:23:23.923Z,87.46
2022-09-20T08:25:55.733Z,87.36
2022-09-20T08:28:27.497Z,87.54
2022-09-20T08:31:04.379Z,87.89
2022-09-20T08:33:36.753Z,88.14
2022-09-20T08:36:09.590Z,88.13
2022-09-20T08:41:33.657Z,87.71
2022-09-20T08:44:06.536Z,86.65
2022-09-20T08:46:39.226Z,85.26
2022-09-20T08:49:11.790Z,84.56
2022-09-20T08:51:48.487Z,83.06
2022-09-20T08:54:20.305Z,80.22
2022-09-20T08:56:51.878Z,79.61
2022-09-20T08:59:25.630Z,80.38
2022-09-20T09:01:57.026Z,80.73
2022-09-20T09:04:31.547Z,79.69
2022-09-20T09:07:03.434Z,77.22
2022-09-20T09:09:37.810Z,75.06
2022-09-20T09:12:15.596Z,74.56
2022-09-20T09:14:51.353Z,74.41
2022-09-20T09:17:27.524Z,74.75
2022-09-20T09:19:59.561Z,75.41
2022-09-20T09:22:35.389Z,74.80
2022-09-20T09:25:34.593Z,74.44
2022-09-20T09:28:14.359Z,73.47
2022-09-20T09:30:48.004Z,73.64
2022-09-20T09:33:22.829Z,74.54
2022-09-20T09:35:59.567Z,73.85
2022-09-20T09:38:32.389Z,74.39
2022-09-20T09:41:05.440Z,73.81
2022-09-20T09:43:37.806Z,71.73
2022-09-20T09:46:23.410Z,71.08
2022-09-20T09:49:11.732Z,70.76
2022-09-20T09:51:45.362Z,70.62
2022-09-20T09:54:18.336Z,70.07
2022-09-20T09:56:57.469Z,70.12
2022-09-20T09:59:42.434Z,67.25
2022-09-20T10:02:24.265Z,64.01
2022-09-20T10:04:59.483Z,62.89
2022-09-20T10:07:33.497Z,60.84
2022-09-20T10:10:08.911Z,60.99
2022-09-20T10:12:48.314Z,57.49
2022-09-20T10:15:32.206Z,59.69
2022-09-20T10:18:11.951Z,60.10
2022-09-20T10:20:56.021Z,59.23
2022-09-20T10:26:55.228Z,56.83
2022-09-20T10:29:32.792Z,55.98
2022-09-20T10:32:12.776Z,54.74
2022-09-20T10:34:59.777Z,54.96
2022-09-20T10:37:33.945Z,55.36
2022-09-20T10:40:07.990Z,54.64
2022-09-20T10:43:00.296Z,53.71
2022-09-20T10:46:03.790Z,53.13
2022-09-20T10:48:28.955Z,53.77
2022-09-20T10:51:01.838Z,53.39
2022-09-20T10:53:37.124Z,53.92
2022-09-20T10:56:17.817Z,54.28
2022-09-20T10:59:02.467Z,52.64
2022-09-20T11:01:36.341Z,48.25
2022-09-20T11:04:33.754Z,47.94
2022-09-20T11:07:11.933Z,46.14
2022-09-20T11:09:46.775Z,42.27
2022-09-20T11:12:26.306Z,40.89
2022-09-20T11:14:59.420Z,40.40
2022-09-20T11:17:33.715Z,39.61
2022-09-20T11:20:07.899Z,38.99
2022-09-20T11:22:41.863Z,38.02
2022-09-20T11:25:21.059Z,36.29
2022-09-20T11:27:56.838Z,36.80
2022-09-20T11:30:29.747Z,37.64
2022-09-20T11:33:03.716Z,37.71
2022-09-20T11:35:37.577Z,37.48
2022-09-20T11:38:14.430Z,37.81
2022-09-20T11:40:49.529Z,38.46
2022-09-20T11:43:21.961Z,38.87
2022-09-20T11:45:55.845Z,38.60
2022-09-20T11:48:29.689Z,38.12
2022-09-20T11:51:18.291Z,37.99
2022-09-20T11:54:13.009Z,37.39
2022-09-20T11:56:46.012Z,36.90
2022-09-20T11:59:28.838Z,36.03
2022-09-20T12:02:02.870Z,35.58
2022-09-20T12:04:36.067Z,35.64
2022-09-20T12:07:12.444Z,35.53
2022-09-20T12:09:47.930Z,35.16
2022-09-20T12:12:29.581Z,34.05
2022-09-20T12:15:02.402Z,34.39
2022-09-20T12:18:12.671Z,34.93
2022-09-20T12:21:02.835Z,35.44
2022-09-20T12:24:03.152Z,35.87
2022-09-20T12:26:46.226Z,36.11
2022-09-20T12:29:54.924Z,36.03
2022-09-20T12:32:55.287Z,36.21
2022-09-20T12:36:07.661Z,35.76
2022-09-20T12:38:40.477Z,34.92
2022-09-20T12:41:14.508Z,34.29
2022-09-20T12:44:07.778Z,34.19
2022-09-20T12:46:43.763Z,33.54
2022-09-20T12:49:58.046Z,33.47
2022-09-20T12:52:57.759Z,33.64
2022-09-20T12:55:55.226Z,33.92
2022-09-20T12:58:39.900Z,33.24
2022-09-20T13:01:33.096Z,32.88
2022-09-20T13:04:39.457Z,32.71
2022-09-20T13:07:40.105Z,32.64
2022-09-20T13:10:30.697Z,32.65
2022-09-20T13:13:16.970Z,31.69
2022-09-20T13:15:53.799Z,31.54
2022-09-20T13:18:25.400Z,30.40
2022-09-20T13:20:57.997Z,29.74
2022-09-20T13:23:32.369Z,29.86
2022-09-20T13:26:05.522Z,29.49
2022-09-20T13:28:40.979Z,29.21
2022-09-20T13:31:27.973Z,30.11
2022-09-20T13:34:30.694Z,31.03
2022-09-20T13:37:02.321Z,31.49
2022-09-20T13:39:37.541Z,32.06
2022-09-20T13:42:12.348Z,32.18
2022-09-20T13:44:43.859Z,32.41
2022-09-20T13:47:36.367Z,32.62
2022-09-20T13:50:17.856Z,32.81
2022-09-20T13:52:50.590Z,33.16
2022-09-20T13:55:32.327Z,33.45
2022-09-20T13:58:03.917Z,33.93
2022-09-20T14:00:36.312Z,34.20
2022-09-20T14:03:08.207Z,34.24
2022-09-20T14:05:39.933Z,34.34
2022-09-20T14:08:22.795Z,34.50
2022-09-20T14:11:05.754Z,34.82
2022-09-20T14:13:40.562Z,35.14
2022-09-20T14:16:12.171Z,35.37
2022-09-20T14:18:42.082Z,35.74
2022-09-20T14:21:22.210Z,35.72
2022-09-20T14:23:54.856Z,36.12
2022-09-20T14:26:28.396Z,36.50
2022-09-20T14:29:01.338Z,36.67
2022-09-20T14:31:33.771Z,36.96
2022-09-20T14:34:05.789Z,37.10
2022-09-20T14:36:37.349Z,37.56
2022-09-20T14:39:07.332Z,37.60
2022-09-20T14:41:39.374Z,37.45
2022-09-20T14:44:32.476Z,37.65
2022-09-20T14:47:04.060Z,37.90
2022-09-20T14:49:36.523Z,38.05
2022-09-20T14:52:45.982Z,38.29
2022-09-20T14:55:28.466Z,38.56
2022-09-20T14:58:03.989Z,38.45
2022-09-20T15:00:49.579Z,38.47
2022-09-20T15:03:26.345Z,38.58
2022-09-20T15:05:58.387Z,38.57
2022-09-20T15:08:30.273Z,38.60
2022-09-20T15:11:04.007Z,38.63
2022-09-20T15:13:36.568Z,38.45
2022-09-20T15:16:11.746Z,38.77
2022-09-20T15:18:44.707Z,38.83
2022-09-20T15:21:16.458Z,38.79
2022-09-20T15:23:47.970Z,38.89
2022-09-20T15:26:17.879Z,39.14
2022-09-20T15:28:49.384Z,39.36
2022-09-20T15:31:21.423Z,39.68
2022-09-20T15:33:52.958Z,39.88
2022-09-20T15:36:24.845Z,40.03
2022-09-20T15:38:58.176Z,39.95
2022-09-20T15:41:31.381Z,39.70
2022-09-20T15:44:03.760Z,39.20
2022-09-20T15:46:35.765Z,39.02
2022-09-20T15:49:09.194Z,38.39
2022-09-20T15:51:41.036Z,37.75
2022-09-20T15:54:13.978Z,37.23
2022-09-20T15:56:45.575Z,36.80
2022-09-20T15:59:17.531Z,36.47
2022-09-20T16:01:49.108Z,36.08
2022-09-20T16:04:20.935Z,36.04
2022-09-20T16:06:50.921Z,36.09
2022-09-20T16:09:22.524Z,36.19
2022-09-20T16:11:58.972Z,36.22
2022-09-20T16:14:30.533Z,36.28
2022-09-20T16:17:02.181Z,36.22
2022-09-20T16:19:33.601Z,36.20
2022-09-20T16:22:03.832Z,36.20
2022-09-20T16:24:36.068Z,36.37
2022-09-20T16:27:10.046Z,36.46
2022-09-20T16:29:42.990Z,36.51
2022-09-20T16:32:15.189Z,36.79
2022-09-20T16:34:46.602Z,36.87
2022-09-20T16:37:17.370Z,36.64
2022-09-20T16:39:49.110Z,36.61
2022-09-20T16:42:21.811Z,36.48
2022-09-20T16:44:53.525Z,36.68
2022-09-20T16:47:25.301Z,36.84
2022-09-20T16:49:56.650Z,37.17
2022-09-20T16:52:27.999Z,37.30
2022-09-20T16:54:59.619Z,37.31
2022-09-20T16:57:29.564Z,37.40
2022-09-20T17:00:01.336Z,37.47
2022-09-20T17:02:33.450Z,37.50
2022-09-20T17:05:03.505Z,37.45
2022-09-20T17:07:35.624Z,37.34
2022-09-20T17:10:08.271Z,37.23
2022-09-20T17:12:42.684Z,37.11
2022-09-20T17:15:14.626Z,37.12
2022-09-20T17:17:46.359Z,37.10
2022-09-20T17:20:18.124Z,37.00
2022-09-20T17:22:49.941Z,37.15
2022-09-20T17:25:21.528Z,37.20
2022-09-20T17:27:53.241Z,37.23
2022-09-20T17:30:24.718Z,37.30
2022-09-20T17:32:56.461Z,37.42
2022-09-20T17:35:29.986Z,37.66
2022-09-20T17:38:01.691Z,37.86
2022-09-20T17:40:33.096Z,37.92
2022-09-20T17:43:04.682Z,37.92
2022-09-20T17:45:36.196Z,38.03
2022-09-20T17:48:10.918Z,38.12
2022-09-20T17:50:43.797Z,38.49
2022-09-20T17:53:15.148Z,39.03
2022-09-20T17:55:46.569Z,39.57
2022-09-20T17:58:18.144Z,39.94
2022-09-20T18:00:50.170Z,40.07
2022-09-20T18:03:22.214Z,40.12
2022-09-20T18:05:52.340Z,40.35
2022-09-20T18:08:24.604Z,40.30
2022-09-20T18:10:59.773Z,40.31
2022-09-20T18:13:31.529Z,40.15
2022-09-20T18:16:03.567Z,40.32
2022-09-20T18:18:35.937Z,40.11
2022-09-20T18:21:14.542Z,40.16
2022-09-20T18:23:46.697Z,40.61
2022-09-20T18:26:25.623Z,40.99
2022-09-20T18:29:01.912Z,41.08
2022-09-20T18:31:36.312Z,41.64
2022-09-20T18:34:09.567Z,42.64
2022-09-20T18:36:41.695Z,44.11
2022-09-20T18:39:14.571Z,44.75
2022-09-20T18:41:46.540Z,44.75
2022-09-20T18:44:19.198Z,45.09
2022-09-20T18:46:51.168Z,44.57
2022-09-20T18:49:23.436Z,44.68
2022-09-20T18:51:55.403Z,44.54
2022-09-20T18:54:30.585Z,44.36
2022-09-20T18:57:03.252Z,44.04
2022-09-20T18:59:35.629Z,43.99
2022-09-20T19:02:15.390Z,44.81
2022-09-20T19:05:00.976Z,45.46
2022-09-20T19:07:38.560Z,44.23
2022-09-20T19:10:16.334Z,43.11
2022-09-20T19:12:50.179Z,43.72
2022-09-20T19:15:38.152Z,43.64
2022-09-20T19:18:19.340Z,44.45
2022-09-20T19:20:57.729Z,44.63
2022-09-20T19:23:43.254Z,44.78
2022-09-20T19:26:21.449Z,45.17
2022-09-20T19:28:55.233Z,44.87
2022-09-20T19:31:28.752Z,44.98
2022-09-20T19:34:02.297Z,45.82
2022-09-20T19:36:38.855Z,46.84
2022-09-20T19:39:15.517Z,47.49
2022-09-20T19:41:50.332Z,48.43
2022-09-20T19:44:33.185Z,49.43
2022-09-20T19:47:19.018Z,49.02
2022-09-20T19:49:54.429Z,49.16
2022-09-20T19:52:27.473Z,49.78
2022-09-20T19:55:00.804Z,49.45
2022-09-20T19:57:35.955Z,50.14
2022-09-20T20:00:15.731Z,50.70
2022-09-20T20:02:48.327Z,50.53
2022-09-20T20:05:25.179Z,50.86
2022-09-20T20:08:01.291Z,50.68
2022-09-20T20:10:35.511Z,50.82
2022-09-20T20:13:33.013Z,51.57
2022-09-20T20:16:05.911Z,51.86
2022-09-20T20:18:40.419Z,52.14
2022-09-20T20:21:18.470Z,52.49
2022-09-20T20:23:58.083Z,52.69
2022-09-20T20:26:30.199Z,53.34
2022-09-20T20:29:01.772Z,53.85
2022-09-20T20:31:34.424Z,54.40
2022-09-20T20:34:06.213Z,54.97
2022-09-20T20:36:36.028Z,55.30
2022-09-20T20:39:08.065Z,55.45
2022-09-20T20:41:41.083Z,55.81
2022-09-20T20:44:13.285Z,57.93
2022-09-20T20:46:45.122Z,59.45
2022-09-20T20:49:17.251Z,60.33
2022-09-20T20:51:49.654Z,60.40
2022-09-20T20:54:21.770Z,60.88
2022-09-20T20:56:53.453Z,61.26
2022-09-20T20:59:24.667Z,62.74
2022-09-20T21:01:56.470Z,63.45
2022-09-20T21:04:28.794Z,64.52
2022-09-20T21:07:00.521Z,64.77
2022-09-20T21:09:32.309Z,65.50
2022-09-20T21:12:05.312Z,65.90
2022-09-20T21:14:37.572Z,66.27
2022-09-20T21:17:09.012Z,66.59
2022-09-20T21:19:40.729Z,66.08
2022-09-20T21:22:12.126Z,66.13
2022-09-20T21:24:43.748Z,66.22
2022-09-20T21:27:15.943Z,66.29
2022-09-20T21:29:47.400Z,66.61
2022-09-20T21:32:20.182Z,67.48
2022-09-20T21:34:51.964Z,67.97
2022-09-20T21:37:23.447Z,68.51
2022-09-20T21:39:55.362Z,68.50
2022-09-20T21:42:29.048Z,68.57
2022-09-20T21:45:00.645Z,68.54
2022-09-20T21:47:32.299Z,68.83
2022-09-20T21:50:03.928Z,69.77
2022-09-20T21:52:35.378Z,70.76
2022-09-20T21:55:11.057Z,71.37
2022-09-20T21:57:42.567Z,71.02
2022-09-20T22:00:16.187Z,70.70
2022-09-20T22:02:48.231Z,70.29
2022-09-20T22:05:19.789Z,70.84
2022-09-20T22:07:51.843Z,71.97
2022-09-20T22:10:23.720Z,72.59
2022-09-20T22:12:53.655Z,72.75
2022-09-20T22:15:25.457Z,72.35
2022-09-20T22:17:55.273Z,71.83
2022-09-20T22:20:27.053Z,71.87
2022-09-20T22:22:58.515Z,71.18
2022-09-20T22:25:30.733Z,71.54
2022-09-20T22:28:02.439Z,72.03
2022-09-20T22:30:34.508Z,72.61
2022-09-20T22:33:06.678Z,72.89
2022-09-20T22:35:38.570Z,72.55
2022-09-20T22:38:08.480Z,72.17
2022-09-20T22:40:39.986Z,71.37
2022-09-20T22:43:11.371Z,72.00
2022-09-20T22:45:43.221Z,72.25
2022-09-20T22:48:15.017Z,73.01
2022-09-20T22:50:46.438Z,73.09
2022-09-20T22:53:17.988Z,72.66
2022-09-20T22:55:49.570Z,72.50
2022-09-20T22:58:19.512Z,72.14
2022-09-20T23:00:51.280Z,71.85
2022-09-20T23:03:21.052Z,72.20
2022-09-20T23:05:52.931Z,71.99
2022-09-20T23:08:25.357Z,71.98
2022-09-20T23:11:04.855Z,71.74
2022-09-20T23:13:36.405Z,71.35
2022-09-20T23:16:15.397Z,71.04
2022-09-20T23:18:46.996Z,71.08
2022-09-20T23:21:18.664Z,71.38
2022-09-20T23:23:53.279Z,71.82
2022-09-20T23:26:25.828Z,71.88
2022-09-20T23:28:58.376Z,71.52
2022-09-20T23:31:30.822Z,71.25
2022-09-20T23:34:03.235Z,71.17
2022-09-20T23:36:35.817Z,71.43
2022-09-20T23:39:07.490Z,71.94
2022-09-20T23:41:39.124Z,72.36
2022-09-20T23:44:11.871Z,72.24
2022-09-20T23:46:43.780Z,71.63
2022-09-20T23:49:15.297Z,71.21
2022-09-20T23:51:47.120Z,70.76
2022-09-20T23:54:18.720Z,70.67
2022-09-20T23:56:48.824Z,70.75
2022-09-20T23:59:20.445Z,70.94
